createdAt,value
2023-07-23T00:00:49.617Z,9.65
2023-07-23T00:03:17.408Z,9.82
2023-07-23T00:05:48.534Z,9.60
2023-07-23T00:08:15.895Z,10.02
2023-07-23T00:10:43.237Z,10.27
2023-07-23T00:13:10.609Z,9.98
2023-07-23T00:15:38.006Z,9.48
2023-07-23T00:18:05.574Z,10.00
2023-07-23T00:20:33.175Z,9.45
2023-07-23T00:23:00.486Z,8.98
2023-07-23T00:25:27.846Z,9.98
2023-07-23T00:27:55.176Z,9.48
2023-07-23T00:30:22.695Z,9.25
2023-07-23T00:32:50.289Z,9.38
2023-07-23T00:35:17.817Z,9.55
2023-07-23T00:37:45.158Z,9.88
2023-07-23T00:40:13.078Z,9.85
2023-07-23T00:42:40.435Z,10.40
2023-07-23T00:45:08.008Z,10.40
2023-07-23T00:47:35.396Z,10.43
2023-07-23T00:50:03.849Z,11.20
2023-07-23T00:52:31.593Z,11.85
2023-07-23T00:54:58.944Z,11.10
2023-07-23T00:57:26.247Z,11.80
2023-07-23T00:59:54.588Z,11.43
2023-07-23T01:02:22.805Z,11.80
2023-07-23T01:04:50.203Z,11.02
2023-07-23T01:07:18.013Z,12.10
2023-07-23T01:09:45.698Z,11.82
2023-07-23T01:12:14.412Z,11.52
2023-07-23T01:14:41.799Z,11.00
2023-07-23T01:17:09.124Z,11.57
2023-07-23T01:19:38.268Z,11.90
2023-07-23T01:22:09.115Z,11.93
2023-07-23T01:24:36.931Z,11.98
2023-07-23T01:27:04.800Z,12.25
2023-07-23T01:29:32.118Z,11.80
2023-07-23T01:32:01.866Z,12.85
2023-07-23T01:34:30.789Z,12.32
2023-07-23T01:36:58.193Z,11.85
2023-07-23T01:39:25.535Z,11.63
2023-07-23T01:41:54.753Z,12.30
2023-07-23T01:44:22.038Z,12.10
2023-07-23T01:46:49.440Z,12.20
2023-07-23T01:49:16.758Z,12.27
2023-07-23T01:51:44.369Z,11.15
2023-07-23T01:54:11.678Z,12.20
2023-07-23T01:56:39.985Z,11.50
2023-07-23T01:59:08.522Z,12.38
2023-07-23T02:01:35.974Z,10.35
2023-07-23T02:04:07.826Z,11.27
2023-07-23T02:06:37.787Z,9.93
2023-07-23T02:09:05.156Z,10.02
2023-07-23T02:11:32.534Z,10.32
2023-07-23T02:13:59.836Z,10.73
2023-07-23T02:16:27.221Z,10.45
2023-07-23T02:18:54.871Z,9.85
2023-07-23T02:21:22.150Z,9.82
2023-07-23T02:23:49.470Z,8.95
2023-07-23T02:26:16.881Z,9.27
2023-07-23T02:28:45.076Z,9.68
2023-07-23T02:31:13.350Z,9.40
2023-07-23T02:33:43.599Z,8.80
2023-07-23T02:36:11.954Z,8.60
2023-07-23T02:38:39.302Z,8.55
2023-07-23T02:41:07.201Z,8.63
2023-07-23T02:43:34.662Z,9.40
2023-07-23T02:46:02.029Z,8.43
2023-07-23T02:48:29.411Z,8.82
2023-07-23T02:50:56.940Z,9.45
2023-07-23T02:53:24.223Z,9.00
2023-07-23T02:55:52.034Z,9.20
2023-07-23T02:58:19.381Z,9.50
2023-07-23T03:00:46.760Z,9.10
2023-07-23T03:03:14.183Z,9.68
2023-07-23T03:05:46.254Z,9.52
2023-07-23T03:08:13.605Z,9.60
2023-07-23T03:10:44.425Z,10.23
2023-07-23T03:13:11.795Z,9.27
2023-07-23T03:15:39.142Z,9.60
2023-07-23T03:18:06.662Z,9.13
2023-07-23T03:20:34.234Z,9.13
2023-07-23T03:23:01.601Z,8.77
2023-07-23T03:25:28.901Z,8.13
2023-07-23T03:28:00.411Z,8.77
2023-07-23T03:30:28.529Z,9.95
2023-07-23T03:32:56.323Z,8.57
2023-07-23T03:35:23.890Z,9.30
2023-07-23T03:37:51.715Z,8.63
2023-07-23T03:40:19.188Z,8.35
2023-07-23T03:42:46.551Z,8.95
2023-07-23T03:45:13.965Z,8.05
2023-07-23T03:47:41.533Z,8.45
2023-07-23T03:50:09.110Z,7.95
2023-07-23T03:52:36.880Z,8.70
2023-07-23T03:55:04.470Z,7.30
2023-07-23T03:57:31.802Z,8.13
2023-07-23T03:59:59.136Z,7.45
2023-07-23T04:02:26.554Z,7.65
2023-07-23T04:04:53.963Z,7.05
2023-07-23T04:07:21.228Z,7.38
2023-07-23T04:09:48.548Z,7.03
2023-07-23T04:12:16.001Z,7.00
2023-07-23T04:14:46.009Z,7.38
2023-07-23T04:17:16.095Z,7.05
2023-07-23T04:19:47.398Z,7.53
2023-07-23T04:22:15.092Z,7.25
2023-07-23T04:24:42.482Z,7.10
2023-07-23T04:27:09.981Z,7.22
2023-07-23T04:29:37.343Z,7.18
2023-07-23T04:32:04.945Z,7.20
2023-07-23T04:34:32.282Z,7.45
2023-07-23T04:36:59.649Z,7.38
2023-07-23T04:39:27.042Z,8.05
2023-07-23T04:41:54.345Z,7.57
2023-07-23T04:44:21.666Z,7.35
2023-07-23T04:46:50.991Z,7.50
2023-07-23T04:49:18.252Z,7.40
2023-07-23T04:51:45.575Z,7.43
2023-07-23T04:54:12.939Z,8.00
2023-07-23T04:56:40.254Z,7.63
2023-07-23T04:59:08.893Z,7.85
2023-07-23T05:01:36.300Z,7.32
2023-07-23T05:04:04.857Z,7.30
2023-07-23T05:06:32.169Z,7.65
2023-07-23T05:08:59.468Z,7.38
2023-07-23T05:11:27.106Z,6.60
2023-07-23T05:13:54.611Z,7.18
2023-07-23T05:16:21.953Z,7.25
2023-07-23T05:18:49.285Z,6.55
2023-07-23T05:21:16.683Z,7.20
2023-07-23T05:23:44.718Z,7.00
2023-07-23T05:26:12.244Z,7.53
2023-07-23T05:28:39.699Z,6.55
2023-07-23T05:31:07.074Z,6.55
2023-07-23T05:33:34.467Z,7.05
2023-07-23T05:36:03.240Z,6.93
2023-07-23T05:38:30.630Z,6.80
2023-07-23T05:40:59.083Z,7.32
2023-07-23T05:43:29.499Z,7.03
2023-07-23T05:45:58.914Z,7.15
2023-07-23T05:48:26.259Z,7.28
2023-07-23T05:50:55.096Z,7.60
2023-07-23T05:53:22.502Z,8.20
2023-07-23T05:55:50.035Z,7.30
2023-07-23T05:58:17.452Z,7.13
2023-07-23T06:00:44.931Z,7.97
2023-07-23T06:03:12.366Z,7.57
2023-07-23T06:05:39.874Z,7.85
2023-07-23T06:08:07.117Z,7.53
2023-07-23T06:10:35.695Z,7.63
2023-07-23T06:13:02.985Z,6.97
2023-07-23T06:15:30.286Z,7.63
2023-07-23T06:17:58.566Z,7.95
2023-07-23T06:20:27.091Z,8.02
2023-07-23T06:22:56.037Z,8.65
2023-07-23T06:25:23.392Z,8.25
2023-07-23T06:27:50.678Z,9.00
2023-07-23T06:30:18.059Z,8.60
2023-07-23T06:32:45.837Z,8.50
2023-07-23T06:35:13.419Z,8.68
2023-07-23T06:37:42.279Z,8.63
2023-07-23T06:40:10.161Z,9.00
2023-07-23T06:42:37.448Z,8.93
2023-07-23T06:45:05.147Z,9.55
2023-07-23T06:47:32.680Z,9.60
2023-07-23T06:50:00.053Z,9.50
2023-07-23T06:52:28.044Z,9.70
2023-07-23T06:54:55.448Z,9.10
2023-07-23T06:57:22.982Z,9.13
2023-07-23T06:59:50.354Z,8.82
2023-07-23T07:02:17.755Z,8.50
2023-07-23T07:04:45.135Z,8.48
2023-07-23T07:07:12.497Z,8.98
2023-07-23T07:09:39.823Z,8.27
2023-07-23T07:12:07.925Z,7.65
2023-07-23T07:14:35.220Z,7.80
2023-07-23T07:17:06.585Z,8.07
2023-07-23T07:19:34.245Z,8.95
2023-07-23T07:22:01.637Z,8.43
2023-07-23T07:24:30.116Z,7.75
2023-07-23T07:26:57.501Z,7.20
2023-07-23T07:29:24.782Z,7.65
2023-07-23T07:31:52.899Z,7.82
2023-07-23T07:34:20.240Z,8.30
2023-07-23T07:36:47.670Z,7.68
2023-07-23T07:39:14.967Z,7.63
2023-07-23T07:41:42.318Z,7.63
2023-07-23T07:44:09.753Z,7.50
2023-07-23T07:46:37.133Z,7.93
2023-07-23T07:49:06.205Z,6.78
2023-07-23T07:51:33.594Z,7.97
2023-07-23T07:54:00.976Z,7.95
2023-07-23T07:56:28.591Z,7.45
2023-07-23T07:58:59.488Z,7.75
2023-07-23T08:01:27.229Z,7.53
2023-07-23T08:03:55.180Z,7.40
2023-07-23T08:06:23.758Z,10.05
2023-07-23T08:08:51.842Z,7.45
2023-07-23T08:11:19.434Z,7.43
2023-07-23T08:13:46.780Z,7.15
2023-07-23T08:16:16.503Z,8.02
2023-07-23T08:18:45.418Z,6.80
2023-07-23T08:21:13.556Z,7.80
2023-07-23T08:23:41.317Z,7.32
2023-07-23T08:26:10.137Z,6.70
2023-07-23T08:28:40.676Z,6.95
2023-07-23T08:31:08.284Z,7.43
2023-07-23T08:33:35.812Z,7.45
2023-07-23T08:36:03.236Z,6.97
2023-07-23T08:38:31.928Z,7.05
2023-07-23T08:41:03.878Z,7.13
2023-07-23T08:44:17.367Z,6.70
2023-07-23T08:46:48.309Z,7.25
2023-07-23T08:49:19.396Z,7.72
2023-07-23T08:51:48.840Z,7.47
2023-07-23T08:54:17.902Z,7.63
2023-07-23T08:56:46.246Z,7.28
2023-07-23T08:59:14.009Z,7.47
2023-07-23T09:01:42.911Z,7.88
2023-07-23T09:04:14.520Z,7.20
2023-07-23T09:06:47.409Z,6.75
2023-07-23T09:11:42.857Z,7.22
2023-07-23T09:14:12.665Z,6.93
2023-07-23T09:16:41.847Z,6.70
2023-07-23T09:19:13.648Z,7.90
2023-07-23T09:21:43.964Z,6.93
2023-07-23T09:24:15.966Z,6.93
2023-07-23T09:26:44.315Z,6.95
2023-07-23T09:29:12.906Z,7.22
2023-07-23T09:31:45.978Z,7.00
2023-07-23T09:34:13.456Z,6.70
2023-07-23T09:36:41.920Z,8.07
2023-07-23T09:39:10.720Z,7.72
2023-07-23T09:41:40.117Z,7.72
2023-07-23T09:44:12.841Z,7.53
2023-07-23T09:46:47.623Z,7.60
2023-07-23T09:49:15.632Z,8.00
2023-07-23T09:51:52.711Z,8.30
2023-07-23T09:54:20.980Z,8.38
2023-07-23T09:56:52.591Z,9.15
2023-07-23T09:59:20.856Z,8.68
2023-07-23T10:01:48.506Z,8.63
2023-07-23T10:04:17.627Z,9.23
2023-07-23T10:06:45.697Z,8.35
2023-07-23T10:09:14.670Z,9.18
2023-07-23T10:11:42.133Z,9.18
2023-07-23T10:14:09.516Z,8.70
2023-07-23T10:16:42.134Z,9.23
2023-07-23T10:19:10.577Z,9.40
2023-07-23T10:21:38.264Z,9.27
2023-07-23T10:24:06.093Z,9.15
2023-07-23T10:26:42.030Z,9.00
2023-07-23T10:29:16.581Z,9.60
2023-07-23T10:31:44.176Z,9.57
2023-07-23T10:34:25.764Z,8.50
2023-07-23T10:37:23.689Z,8.93
2023-07-23T10:39:53.030Z,8.95
2023-07-23T10:42:41.929Z,8.85
2023-07-23T10:45:23.631Z,9.50
2023-07-23T10:48:05.391Z,9.55
2023-07-23T10:50:32.880Z,9.23
2023-07-23T10:53:04.980Z,8.23
2023-07-23T10:55:48.520Z,8.27
2023-07-23T10:58:17.152Z,8.75
2023-07-23T11:00:58.009Z,8.57
2023-07-23T11:03:27.306Z,8.20
2023-07-23T11:05:55.145Z,7.97
2023-07-23T11:08:25.390Z,7.10
2023-07-23T11:10:59.076Z,7.75
2023-07-23T11:13:34.089Z,7.93
2023-07-23T11:16:03.291Z,7.70
2023-07-23T11:18:33.261Z,8.05
2023-07-23T11:21:04.509Z,7.78
2023-07-23T11:23:32.883Z,7.93
2023-07-23T11:26:00.548Z,8.07
2023-07-23T11:28:29.005Z,8.00
2023-07-23T11:30:57.627Z,7.18
2023-07-23T11:33:30.626Z,7.50
2023-07-23T11:35:59.925Z,7.63
2023-07-23T11:38:34.031Z,8.07
2023-07-23T11:41:01.889Z,7.55
2023-07-23T11:43:29.331Z,7.30
2023-07-23T11:45:57.091Z,7.07
2023-07-23T11:48:24.941Z,6.40
2023-07-23T11:50:53.212Z,6.30
2023-07-23T11:54:01.399Z,6.32
2023-07-23T11:56:29.840Z,5.65
2023-07-23T11:58:57.524Z,5.90
2023-07-23T12:01:25.128Z,6.57
2023-07-23T12:03:52.935Z,6.55
2023-07-23T12:06:27.529Z,7.13
2023-07-23T12:09:01.458Z,8.65
2023-07-23T12:11:37.773Z,7.55
2023-07-23T12:14:09.967Z,6.65
2023-07-23T12:16:39.659Z,6.97
2023-07-23T12:19:08.077Z,6.60
2023-07-23T12:21:37.483Z,6.10
2023-07-23T12:24:20.818Z,6.28
2023-07-23T12:26:50.094Z,5.80
2023-07-23T12:29:18.472Z,6.15
2023-07-23T12:31:47.871Z,5.53
2023-07-23T12:34:16.432Z,5.53
2023-07-23T12:36:44.404Z,5.18
2023-07-23T12:39:12.596Z,5.75
2023-07-23T12:41:40.127Z,5.45
2023-07-23T12:44:07.561Z,5.07
2023-07-23T12:46:35.048Z,5.03
2023-07-23T12:49:02.544Z,4.40
2023-07-23T12:51:30.144Z,4.13
2023-07-23T12:53:57.445Z,4.30
2023-07-23T12:56:24.728Z,4.88
2023-07-23T12:58:52.026Z,4.80
2023-07-23T13:01:22.452Z,4.50
2023-07-23T13:03:49.881Z,4.60
2023-07-23T13:06:17.271Z,4.45
2023-07-23T13:08:44.578Z,4.28
2023-07-23T13:11:11.905Z,4.72
2023-07-23T13:13:39.310Z,3.95
2023-07-23T13:16:07.618Z,4.15
2023-07-23T13:18:35.148Z,4.28
2023-07-23T13:21:04.149Z,4.65
2023-07-23T13:23:33.612Z,4.25
2023-07-23T13:26:01.862Z,4.78
2023-07-23T13:28:29.182Z,4.45
2023-07-23T13:30:56.770Z,4.53
2023-07-23T13:33:24.170Z,4.20
2023-07-23T13:35:54.628Z,4.47
2023-07-23T13:38:23.477Z,4.20
2023-07-23T13:40:51.514Z,4.25
2023-07-23T13:43:18.896Z,4.22
2023-07-23T13:45:48.407Z,4.05
2023-07-23T13:48:15.711Z,4.35
2023-07-23T13:50:50.796Z,3.97
2023-07-23T13:53:20.888Z,4.47
2023-07-23T13:55:48.187Z,3.85
2023-07-23T13:58:15.546Z,3.92
2023-07-23T14:00:44.158Z,4.13
2023-07-23T14:03:11.808Z,4.30
2023-07-23T14:05:39.287Z,4.07
2023-07-23T14:08:06.600Z,3.90
2023-07-23T14:10:34.053Z,3.70
2023-07-23T14:13:01.438Z,3.70
2023-07-23T14:15:29.502Z,3.72
2023-07-23T14:17:58.058Z,4.13
2023-07-23T14:20:28.942Z,4.28
2023-07-23T14:22:56.335Z,4.35
2023-07-23T14:25:23.678Z,3.92
2023-07-23T14:27:51.044Z,3.70
2023-07-23T14:30:18.384Z,3.83
2023-07-23T14:32:45.951Z,3.78
2023-07-23T14:35:13.683Z,3.70
2023-07-23T14:37:40.851Z,3.70
2023-07-23T14:40:09.006Z,3.60
2023-07-23T14:42:35.991Z,3.97
2023-07-23T14:45:06.273Z,4.25
2023-07-23T14:47:33.215Z,4.10
2023-07-23T14:50:00.401Z,3.47
2023-07-23T14:52:27.344Z,3.85
2023-07-23T14:54:54.311Z,3.80
2023-07-23T14:57:24.227Z,3.80
2023-07-23T14:59:51.565Z,4.07
2023-07-23T15:02:18.559Z,4.15
2023-07-23T15:04:45.523Z,4.13
2023-07-23T15:07:13.227Z,4.07
2023-07-23T15:09:40.275Z,4.07
2023-07-23T15:12:08.240Z,3.50
2023-07-23T15:14:35.699Z,3.67
2023-07-23T15:17:03.244Z,3.30
2023-07-23T15:19:32.237Z,3.97
2023-07-23T15:21:59.574Z,3.40
2023-07-23T15:24:26.930Z,3.72
2023-07-23T15:26:59.125Z,3.38
2023-07-23T15:29:35.570Z,3.70
2023-07-23T15:32:02.705Z,3.88
2023-07-23T15:34:30.322Z,3.83
2023-07-23T15:36:57.288Z,4.38
2023-07-23T15:39:24.206Z,3.60
2023-07-23T15:41:51.354Z,3.70
2023-07-23T15:44:19.654Z,3.47
2023-07-23T15:46:47.813Z,3.78
2023-07-23T15:49:15.015Z,4.13
2023-07-23T15:51:45.508Z,4.20
2023-07-23T15:54:14.892Z,4.10
2023-07-23T15:56:41.864Z,4.05
2023-07-23T15:59:09.091Z,4.20
2023-07-23T16:01:36.208Z,4.18
2023-07-23T16:04:04.226Z,4.05
2023-07-23T16:06:31.199Z,4.45
2023-07-23T16:08:58.641Z,4.20
2023-07-23T16:11:25.553Z,4.28
2023-07-23T16:13:53.432Z,4.20
2023-07-23T16:16:20.381Z,4.43
2023-07-23T16:18:47.329Z,4.32
2023-07-23T16:21:14.483Z,4.35
2023-07-23T16:23:41.468Z,3.85
2023-07-23T16:26:10.909Z,4.03
2023-07-23T16:28:37.844Z,4.97
2023-07-23T16:31:04.856Z,4.65
2023-07-23T16:33:32.232Z,4.18
2023-07-23T16:36:08.121Z,4.20
2023-07-23T16:38:36.252Z,4.40
2023-07-23T16:41:06.573Z,4.57
2023-07-23T16:43:38.208Z,4.63
2023-07-23T16:46:05.796Z,4.20
2023-07-23T16:48:32.809Z,4.05
2023-07-23T16:51:00.669Z,4.32
2023-07-23T16:53:31.439Z,4.10
2023-07-23T16:56:00.137Z,4.63
2023-07-23T16:58:28.529Z,4.60
2023-07-23T17:00:56.609Z,3.50
2023-07-23T17:03:25.369Z,3.55
2023-07-23T17:05:52.333Z,3.00
2023-07-23T17:08:19.437Z,3.40
2023-07-23T17:10:46.606Z,3.17
2023-07-23T17:13:17.281Z,3.17
2023-07-23T17:15:46.154Z,3.10
2023-07-23T17:18:13.132Z,3.00
2023-07-23T17:20:42.600Z,3.15
2023-07-23T17:23:09.846Z,2.97
2023-07-23T17:25:36.853Z,3.60
2023-07-23T17:28:03.794Z,3.10
2023-07-23T17:30:30.754Z,3.03
2023-07-23T17:32:57.650Z,3.10
2023-07-23T17:35:25.158Z,3.28
2023-07-23T17:37:52.591Z,2.97
2023-07-23T17:40:19.617Z,3.05
2023-07-23T17:42:48.366Z,2.88
2023-07-23T17:45:15.984Z,2.80
2023-07-23T17:47:42.867Z,2.97
2023-07-23T17:50:18.192Z,2.97
2023-07-23T17:52:46.209Z,3.30
2023-07-23T17:55:13.915Z,3.05
2023-07-23T17:57:42.013Z,3.30
2023-07-23T18:00:11.862Z,2.80
2023-07-23T18:02:39.435Z,3.15
2023-07-23T18:05:07.218Z,3.85
2023-07-23T18:07:34.481Z,3.53
2023-07-23T18:10:02.249Z,3.67
2023-07-23T18:12:29.156Z,3.85
2023-07-23T18:14:56.712Z,3.50
2023-07-23T18:17:24.509Z,3.72
2023-07-23T18:19:51.677Z,3.38
2023-07-23T18:22:18.986Z,3.70
2023-07-23T18:24:46.278Z,3.60
2023-07-23T18:27:14.586Z,3.22
2023-07-23T18:29:43.074Z,2.85
2023-07-23T18:32:10.468Z,3.40
2023-07-23T18:34:38.798Z,3.28
2023-07-23T18:37:06.726Z,3.05
2023-07-23T18:39:33.814Z,3.03
2023-07-23T18:42:01.265Z,3.00
2023-07-23T18:44:28.603Z,3.20
2023-07-23T18:46:55.967Z,3.42
2023-07-23T18:49:23.323Z,3.30
2023-07-23T18:51:50.243Z,3.45
2023-07-23T18:54:17.164Z,4.15
2023-07-23T18:56:44.170Z,3.55
2023-07-23T18:59:11.048Z,4.38
2023-07-23T19:01:37.966Z,4.00
2023-07-23T19:04:05.104Z,3.95
2023-07-23T19:06:32.698Z,3.92
2023-07-23T19:09:00.254Z,3.80
2023-07-23T19:11:27.669Z,4.60
2023-07-23T19:13:55.130Z,4.13
2023-07-23T19:16:22.661Z,4.25
2023-07-23T19:18:50.080Z,4.70
2023-07-23T19:21:17.558Z,4.40
2023-07-23T19:23:45.247Z,4.53
2023-07-23T19:26:13.027Z,4.22
2023-07-23T19:28:40.330Z,4.45
2023-07-23T19:31:09.547Z,4.30
2023-07-23T19:33:37.124Z,4.78
2023-07-23T19:36:04.518Z,4.82
2023-07-23T19:38:32.157Z,4.68
2023-07-23T19:40:59.595Z,4.65
2023-07-23T19:43:26.980Z,4.40
2023-07-23T19:45:54.395Z,4.88
2023-07-23T19:48:21.882Z,5.03
2023-07-23T19:50:49.213Z,4.93
2023-07-23T19:53:17.167Z,4.88
2023-07-23T19:55:45.384Z,4.65
2023-07-23T19:58:13.691Z,4.65
2023-07-23T20:00:41.011Z,4.80
2023-07-23T20:03:08.413Z,4.30
2023-07-23T20:05:35.772Z,4.47
2023-07-23T20:08:03.707Z,4.80
2023-07-23T20:10:31.067Z,4.25
2023-07-23T20:12:58.561Z,4.30
2023-07-23T20:15:26.027Z,4.60
2023-07-23T20:17:53.509Z,4.50
2023-07-23T20:20:21.351Z,4.25
2023-07-23T20:22:48.747Z,4.63
2023-07-23T20:25:15.873Z,4.05
2023-07-23T20:27:43.281Z,4.50
2023-07-23T20:30:11.155Z,3.90
2023-07-23T20:32:38.835Z,4.22
2023-07-23T20:35:06.731Z,4.22
2023-07-23T20:37:34.369Z,4.13
2023-07-23T20:40:02.034Z,3.88
2023-07-23T20:42:29.790Z,3.97
2023-07-23T20:44:57.139Z,4.32
2023-07-23T20:47:24.589Z,3.80
2023-07-23T20:49:51.953Z,4.10
2023-07-23T20:52:19.349Z,4.18
2023-07-23T20:54:46.623Z,4.10
2023-07-23T20:57:13.951Z,3.97
2023-07-23T20:59:41.269Z,3.78
2023-07-23T21:02:08.613Z,4.05
2023-07-23T21:04:36.021Z,3.70
2023-07-23T21:07:03.516Z,4.43
2023-07-23T21:09:31.265Z,4.13
2023-07-23T21:12:00.304Z,3.80
2023-07-23T21:14:27.999Z,4.35
2023-07-23T21:16:55.407Z,4.22
2023-07-23T21:19:22.707Z,4.47
2023-07-23T21:21:50.039Z,4.40
2023-07-23T21:24:17.459Z,4.70
2023-07-23T21:26:45.840Z,4.20
2023-07-23T21:29:15.430Z,4.53
2023-07-23T21:31:42.735Z,4.45
2023-07-23T21:34:10.073Z,4.45
2023-07-23T21:36:37.396Z,4.80
2023-07-23T21:39:04.712Z,4.82
2023-07-23T21:41:32.025Z,5.05
2023-07-23T21:43:59.456Z,4.38
2023-07-23T21:46:26.871Z,4.82
2023-07-23T21:48:54.229Z,4.57
2023-07-23T21:51:21.629Z,4.57
2023-07-23T21:53:48.946Z,4.97
2023-07-23T21:56:16.317Z,4.88
2023-07-23T21:58:43.638Z,4.68
2023-07-23T22:01:11.015Z,4.90
2023-07-23T22:03:38.630Z,4.72
2023-07-23T22:06:07.087Z,4.80
2023-07-23T22:08:34.468Z,4.75
2023-07-23T22:11:04.749Z,4.38
2023-07-23T22:13:32.074Z,4.60
2023-07-23T22:15:59.382Z,4.07
2023-07-23T22:18:26.750Z,4.90
2023-07-23T22:20:54.017Z,4.35
2023-07-23T22:23:21.436Z,4.40
2023-07-23T22:25:50.700Z,4.22
2023-07-23T22:28:18.155Z,5.40
2023-07-23T22:30:45.435Z,4.80
2023-07-23T22:33:14.216Z,4.40
2023-07-23T22:35:41.496Z,4.28
2023-07-23T22:38:08.776Z,4.82
2023-07-23T22:40:36.198Z,4.18
2023-07-23T22:43:05.348Z,3.80
2023-07-23T22:45:33.741Z,4.13
2023-07-23T22:48:01.495Z,3.90
2023-07-23T22:50:30.041Z,4.10
2023-07-23T22:52:57.430Z,3.80
2023-07-23T22:55:25.002Z,3.33
2023-07-23T22:57:52.324Z,3.50
2023-07-23T23:00:19.820Z,3.75
2023-07-23T23:02:47.413Z,3.30
2023-07-23T23:05:15.591Z,3.38
2023-07-23T23:07:42.902Z,3.40
2023-07-23T23:10:10.521Z,4.00
2023-07-23T23:12:38.107Z,3.47
2023-07-23T23:15:47.742Z,3.80
2023-07-23T23:18:15.188Z,4.00
2023-07-23T23:20:42.506Z,3.65
2023-07-23T23:23:09.811Z,3.67
2023-07-23T23:25:37.121Z,3.70
2023-07-23T23:28:04.919Z,3.80
2023-07-23T23:30:32.410Z,4.10
2023-07-23T23:33:00.070Z,3.65
2023-07-23T23:35:27.391Z,3.83
2023-07-23T23:37:55.411Z,4.00
2023-07-23T23:40:23.533Z,3.95
2023-07-23T23:42:50.865Z,3.65
2023-07-23T23:45:18.261Z,4.13
2023-07-23T23:47:45.581Z,4.13
2023-07-23T23:50:12.922Z,5.15
2023-07-23T23:52:40.215Z,4.50
2023-07-23T23:55:08.467Z,4.15
2023-07-23T23:57:35.821Z,4.60
